createdAt,value
2022-12-23T00:01:09.490Z,91370.94
2022-12-23T00:03:36.225Z,91366.06
2022-12-23T00:06:09.347Z,91370.28
2022-12-23T00:08:36.695Z,91382.47
2022-12-23T00:11:04.682Z,91374.19
2022-12-23T00:13:49.780Z,91383.03
2022-12-23T00:16:16.493Z,91374.81
2022-12-23T00:18:43.199Z,91363.09
2022-12-23T00:21:14.195Z,91370.97
2022-12-23T00:23:42.568Z,91371.19
2022-12-23T00:26:33.456Z,91367.59
2022-12-23T00:29:00.143Z,91373.03
2022-12-23T00:31:26.813Z,91373.34
2022-12-23T00:33:54.423Z,91373.41
2022-12-23T00:36:25.220Z,91375.41
2022-12-23T00:39:10.268Z,91359.81
2022-12-23T00:41:55.609Z,91358.72
2022-12-23T00:44:22.269Z,91362.13
2022-12-23T00:46:49.100Z,91360.16
2022-12-23T00:49:35.690Z,91356.56
2022-12-23T00:52:02.840Z,91356.44
2022-12-23T00:54:29.509Z,91363.09
2022-12-23T00:56:56.198Z,91356.94
2022-12-23T00:59:22.903Z,91363.41
2022-12-23T01:02:08.199Z,91359.19
2022-12-23T01:04:53.432Z,91350.69
2022-12-23T01:07:20.345Z,91350.63
2022-12-23T01:09:47.173Z,91345.25
2022-12-23T01:12:13.830Z,91342.25
2022-12-23T01:14:40.499Z,91347.22
2022-12-23T01:17:07.595Z,91340.38
2022-12-23T01:19:34.581Z,91340.38
2022-12-23T01:22:01.220Z,91343.97
2022-12-23T01:24:31.296Z,91348.72
2022-12-23T01:26:58.105Z,91353.28
2022-12-23T01:29:24.883Z,91349.25
2022-12-23T01:31:51.586Z,91352.44
2022-12-23T01:34:18.260Z,91350.66
2022-12-23T01:36:44.945Z,91347.16
2022-12-23T01:39:11.718Z,91339.88
2022-12-23T01:41:56.993Z,91334.13
2022-12-23T01:45:01.548Z,91334.94
2022-12-23T01:47:32.436Z,91331.00
2022-12-23T01:50:14.273Z,91321.41
2022-12-23T01:53:14.697Z,91326.28
2022-12-23T01:56:02.069Z,91325.34
2022-12-23T01:59:01.013Z,91319.09
2022-12-23T02:01:46.464Z,91327.84
2022-12-23T02:04:19.480Z,91314.09
2022-12-23T02:07:05.216Z,91318.63
2022-12-23T02:09:36.740Z,91326.94
2022-12-23T02:12:15.563Z,91320.06
2022-12-23T02:15:37.753Z,91305.25
2022-12-23T02:18:34.565Z,91313.97
2022-12-23T02:21:14.732Z,91323.03
2022-12-23T02:24:03.196Z,91319.44
2022-12-23T02:26:47.817Z,91316.22
2022-12-23T02:29:14.543Z,91304.09
2022-12-23T02:31:50.210Z,91303.22
2022-12-23T02:34:26.912Z,91304.81
2022-12-23T02:37:11.917Z,91311.47
2022-12-23T02:39:43.098Z,91314.13
2022-12-23T02:42:30.954Z,91305.06
2022-12-23T02:45:07.061Z,91300.56
2022-12-23T02:47:46.479Z,91303.31
2022-12-23T02:50:21.827Z,91305.47
2022-12-23T02:52:48.478Z,91304.59
2022-12-23T02:55:22.205Z,91311.47
2022-12-23T02:57:49.274Z,91304.34
2022-12-23T03:00:16.890Z,91309.38
2022-12-23T03:02:44.750Z,91311.53
2022-12-23T03:05:27.945Z,91315.03
2022-12-23T03:08:00.213Z,91312.50
2022-12-23T03:10:26.776Z,91314.94
2022-12-23T03:13:19.694Z,91307.16
2022-12-23T03:15:57.208Z,91311.31
2022-12-23T03:18:38.868Z,91310.22
2022-12-23T03:21:13.011Z,91308.72
2022-12-23T03:23:55.279Z,91312.78
2022-12-23T03:26:38.727Z,91312.94
2022-12-23T03:29:16.165Z,91319.38
2022-12-23T03:31:43.045Z,91317.47
2022-12-23T03:34:11.706Z,91314.91
2022-12-23T03:36:40.247Z,91315.25
2022-12-23T03:39:08.808Z,91299.88
2022-12-23T03:41:37.213Z,91308.19
2022-12-23T03:44:09.910Z,91297.34
2022-12-23T03:46:42.945Z,91299.94
2022-12-23T03:49:13.483Z,91298.84
2022-12-23T03:51:47.617Z,91292.28
2022-12-23T03:54:20.029Z,91288.94
2022-12-23T03:56:50.047Z,91292.13
2022-12-23T03:59:20.420Z,91297.66
2022-12-23T04:02:01.021Z,91294.50
2022-12-23T04:04:53.370Z,91287.91
2022-12-23T04:07:25.528Z,91293.09
2022-12-23T04:09:52.572Z,91288.88
2022-12-23T04:12:19.176Z,91292.28
2022-12-23T04:14:47.461Z,91298.53
2022-12-23T04:17:14.210Z,91290.97
2022-12-23T04:19:42.011Z,91276.78
2022-12-23T04:22:08.652Z,91287.38
2022-12-23T04:24:35.309Z,91290.44
2022-12-23T04:27:01.949Z,91286.28
2022-12-23T04:29:28.533Z,91275.47
2022-12-23T04:31:55.280Z,91285.41
2022-12-23T04:34:21.904Z,91279.59
2022-12-23T04:36:48.518Z,91280.50
2022-12-23T04:39:15.251Z,91278.84
2022-12-23T04:41:41.903Z,91283.31
2022-12-23T04:44:08.553Z,91295.34
2022-12-23T04:46:35.213Z,91290.38
2022-12-23T04:49:01.959Z,91292.75
2022-12-23T04:51:28.563Z,91284.13
2022-12-23T04:53:55.220Z,91295.28
2022-12-23T04:56:21.828Z,91288.19
2022-12-23T04:58:48.499Z,91285.72
2022-12-23T05:01:15.174Z,91293.84
2022-12-23T05:03:41.953Z,91296.38
2022-12-23T05:06:08.589Z,91305.03
2022-12-23T05:08:35.254Z,91305.56
2022-12-23T05:11:01.916Z,91303.56
2022-12-23T05:13:28.670Z,91311.25
2022-12-23T05:15:55.546Z,91309.78
2022-12-23T05:18:22.170Z,91313.78
2022-12-23T05:20:49.004Z,91319.66
2022-12-23T05:23:15.706Z,91323.66
2022-12-23T05:25:42.353Z,91327.59
2022-12-23T05:28:09.718Z,91319.06
2022-12-23T05:30:36.485Z,91316.66
2022-12-23T05:33:03.217Z,91314.72
2022-12-23T05:35:29.916Z,91316.72
2022-12-23T05:37:57.823Z,91326.75
2022-12-23T05:40:30.165Z,91325.66
2022-12-23T05:42:58.325Z,91322.25
2022-12-23T05:45:25.085Z,91318.59
2022-12-23T05:47:51.840Z,91325.66
2022-12-23T05:50:18.688Z,91324.09
2022-12-23T05:52:45.597Z,91323.13
2022-12-23T05:55:12.269Z,91322.81
2022-12-23T05:57:38.996Z,91320.34
2022-12-23T06:00:06.197Z,91312.16
2022-12-23T06:02:33.128Z,91312.38
2022-12-23T06:05:00.098Z,91306.94
2022-12-23T06:07:26.799Z,91313.38
2022-12-23T06:09:53.462Z,91305.78
2022-12-23T06:12:20.091Z,91309.19
2022-12-23T06:14:46.804Z,91311.84
2022-12-23T06:17:13.496Z,91306.16
2022-12-23T06:19:40.274Z,91297.38
2022-12-23T06:22:06.926Z,91301.75
2022-12-23T06:24:33.525Z,91300.88
2022-12-23T06:27:00.204Z,91305.25
2022-12-23T06:29:26.871Z,91308.97
2022-12-23T06:31:53.683Z,91311.66
2022-12-23T06:34:20.334Z,91311.50
2022-12-23T06:36:46.925Z,91310.34
2022-12-23T06:39:14.025Z,91304.94
2022-12-23T06:41:40.655Z,91304.41
2022-12-23T06:44:07.392Z,91310.88
2022-12-23T06:46:34.128Z,91308.97
2022-12-23T06:49:00.771Z,91308.41
2022-12-23T06:51:27.407Z,91311.81
2022-12-23T06:53:54.031Z,91319.66
2022-12-23T06:56:20.716Z,91325.34
2022-12-23T06:58:47.375Z,91318.59
2022-12-23T07:01:14.057Z,91323.03
2022-12-23T07:03:41.027Z,91323.00
2022-12-23T07:06:07.904Z,91321.97
2022-12-23T07:08:34.566Z,91312.38
2022-12-23T07:11:01.585Z,91313.94
2022-12-23T07:13:28.311Z,91315.25
2022-12-23T07:15:55.067Z,91315.22
2022-12-23T07:18:22.791Z,91328.44
2022-12-23T07:20:50.222Z,91326.09
2022-12-23T07:23:16.928Z,91329.72
2022-12-23T07:25:43.609Z,91340.38
2022-12-23T07:28:10.207Z,91339.34
2022-12-23T07:30:36.860Z,91342.72
2022-12-23T07:33:03.490Z,91335.72
2022-12-23T07:35:30.197Z,91337.00
2022-12-23T07:37:56.861Z,91340.34
2022-12-23T07:40:23.798Z,91345.28
2022-12-23T07:42:51.113Z,91344.00
2022-12-23T07:45:17.818Z,91350.25
2022-12-23T07:47:44.454Z,91346.88
2022-12-23T07:50:11.403Z,91343.00
2022-12-23T07:52:38.063Z,91351.00
2022-12-23T07:55:05.603Z,91340.88
2022-12-23T07:57:37.874Z,91346.09
2022-12-23T08:00:08.706Z,91347.63
2022-12-23T08:02:35.599Z,91352.28
2022-12-23T08:05:02.370Z,91354.34
2022-12-23T08:07:29.085Z,91352.22
2022-12-23T08:09:55.839Z,91352.22
2022-12-23T08:12:22.396Z,91347.47
2022-12-23T08:14:50.488Z,91347.03
2022-12-23T08:17:17.208Z,91359.41
2022-12-23T08:19:43.959Z,91356.75
2022-12-23T08:22:10.541Z,91363.50
2022-12-23T08:24:37.208Z,91357.59
2022-12-23T08:27:04.013Z,91354.56
2022-12-23T08:29:36.054Z,91358.84
2022-12-23T08:32:03.242Z,91354.72
2022-12-23T08:34:29.802Z,91344.84
2022-12-23T08:36:56.415Z,91354.66
2022-12-23T08:39:23.190Z,91360.41
2022-12-23T08:41:49.959Z,91354.94
2022-12-23T08:44:16.956Z,91358.38
2022-12-23T08:46:43.733Z,91358.97
2022-12-23T08:49:10.759Z,91366.16
2022-12-23T08:51:37.859Z,91361.13
2022-12-23T08:54:04.729Z,91360.72
2022-12-23T08:56:35.697Z,91355.78
2022-12-23T08:59:02.518Z,91354.16
2022-12-23T09:01:30.685Z,91356.56
2022-12-23T09:03:57.612Z,91352.31
2022-12-23T09:06:29.425Z,91347.72
2022-12-23T09:08:56.555Z,91349.97
2022-12-23T09:11:24.456Z,91338.75
2022-12-23T09:13:51.135Z,91340.78
2022-12-23T09:16:17.917Z,91337.81
2022-12-23T09:18:44.645Z,91328.81
2022-12-23T09:21:19.442Z,91329.81
2022-12-23T09:23:46.169Z,91336.31
2022-12-23T09:26:21.011Z,91334.31
2022-12-23T09:28:47.709Z,91336.72
2022-12-23T09:31:14.507Z,91333.13
2022-12-23T09:33:41.123Z,91324.47
2022-12-23T09:36:08.034Z,91332.13
2022-12-23T09:38:34.740Z,91327.00
2022-12-23T09:41:11.200Z,91320.63
2022-12-23T09:43:48.400Z,91332.56
2022-12-23T09:46:20.573Z,91320.94
2022-12-23T09:48:56.832Z,91327.50
2022-12-23T09:51:23.514Z,91321.53
2022-12-23T09:53:55.717Z,91325.63
2022-12-23T09:56:39.473Z,91325.66
2022-12-23T09:59:29.350Z,91327.88
2022-12-23T10:02:19.212Z,91322.06
2022-12-23T10:04:52.962Z,91330.56
2022-12-23T10:07:27.554Z,91327.97
2022-12-23T10:09:54.723Z,91329.41
2022-12-23T10:12:37.371Z,91316.31
2022-12-23T10:15:21.640Z,91323.31
2022-12-23T10:17:49.955Z,91326.03
2022-12-23T10:20:19.484Z,91323.19
2022-12-23T10:22:46.900Z,91320.41
2022-12-23T10:25:37.655Z,91323.66
2022-12-23T10:28:04.673Z,91322.34
2022-12-23T10:30:57.380Z,91326.31
2022-12-23T10:33:23.262Z,91324.31
2022-12-23T10:36:01.990Z,91336.50
2022-12-23T10:38:59.603Z,91325.25
2022-12-23T10:41:32.220Z,91327.66
2022-12-23T10:44:36.693Z,91327.00
2022-12-23T10:47:18.435Z,91324.66
2022-12-23T10:49:48.100Z,91319.75
2022-12-23T10:52:28.267Z,91321.41
2022-12-23T10:54:54.937Z,91311.03
2022-12-23T10:57:23.539Z,91320.41
2022-12-23T10:59:50.259Z,91310.59
2022-12-23T11:02:29.222Z,91310.47
2022-12-23T11:04:55.967Z,91308.19
2022-12-23T11:10:19.637Z,91314.97
2022-12-23T11:12:48.624Z,91307.97
2022-12-23T11:15:32.810Z,91313.16
2022-12-23T11:18:11.559Z,91304.47
2022-12-23T11:20:39.027Z,91300.25
2022-12-23T11:23:06.834Z,91300.03
2022-12-23T11:25:43.259Z,91302.72
2022-12-23T11:28:17.482Z,91306.03
2022-12-23T11:31:01.600Z,91297.34
2022-12-23T11:33:28.328Z,91307.03
2022-12-23T11:36:02.659Z,91307.03
2022-12-23T11:38:29.643Z,91306.25
2022-12-23T11:40:56.524Z,91301.41
2022-12-23T11:43:23.327Z,91303.38
2022-12-23T11:46:11.441Z,91313.25
2022-12-23T11:48:38.060Z,91310.47
2022-12-23T11:51:05.120Z,91298.31
2022-12-23T11:53:32.320Z,91296.59
2022-12-23T11:56:09.925Z,91307.03
2022-12-23T11:59:00.303Z,91304.03
2022-12-23T12:01:27.077Z,91312.66
2022-12-23T12:03:59.319Z,91301.16
2022-12-23T12:06:26.080Z,91300.81
2022-12-23T12:08:54.152Z,91292.88
2022-12-23T12:11:31.961Z,91301.78
2022-12-23T12:14:00.163Z,91294.56
2022-12-23T12:16:56.193Z,91292.41
2022-12-23T12:19:26.191Z,91296.28
2022-12-23T12:21:55.780Z,91294.84
2022-12-23T12:24:39.277Z,91300.72
2022-12-23T12:27:06.889Z,91304.88
2022-12-23T12:29:48.785Z,91291.72
2022-12-23T12:32:27.499Z,91296.19
2022-12-23T12:35:07.159Z,91291.75
2022-12-23T12:37:54.564Z,91292.59
2022-12-23T12:40:24.702Z,91292.50
2022-12-23T12:43:01.097Z,91288.25
2022-12-23T12:45:42.841Z,91298.69
2022-12-23T12:48:37.287Z,91298.00
2022-12-23T12:51:37.385Z,91307.69
2022-12-23T12:54:31.753Z,91303.94
2022-12-23T12:56:58.827Z,91301.22
2022-12-23T12:59:28.113Z,91302.09
2022-12-23T13:02:25.623Z,91301.31
2022-12-23T13:05:10.000Z,91293.97
2022-12-23T13:07:47.108Z,91294.41
2022-12-23T13:10:25.705Z,91298.88
2022-12-23T13:13:00.870Z,91301.56
2022-12-23T13:15:46.033Z,91291.22
2022-12-23T13:18:33.687Z,91295.56
2022-12-23T13:21:06.171Z,91294.00
2022-12-23T13:24:03.867Z,91295.31
2022-12-23T13:26:39.278Z,91301.63
2022-12-23T13:29:35.064Z,91297.78
2022-12-23T13:32:27.566Z,91292.84
2022-12-23T13:35:12.436Z,91303.16
2022-12-23T13:37:56.270Z,91311.25
2022-12-23T13:40:32.504Z,91296.69
2022-12-23T13:43:03.047Z,91301.47
2022-12-23T13:45:34.264Z,91305.03
2022-12-23T13:48:10.848Z,91308.97
2022-12-23T13:51:08.712Z,91298.09
2022-12-23T13:53:53.397Z,91292.50
2022-12-23T13:56:27.170Z,91296.66
2022-12-23T13:58:53.834Z,91299.66
2022-12-23T14:01:33.643Z,91302.19
2022-12-23T14:04:29.074Z,91305.03
2022-12-23T14:06:59.815Z,91313.66
2022-12-23T14:09:32.376Z,91313.13
2022-12-23T14:12:12.141Z,91321.97
2022-12-23T14:14:38.731Z,91313.25
2022-12-23T14:17:31.777Z,91322.94
2022-12-23T14:20:25.955Z,91320.03
2022-12-23T14:22:57.064Z,91319.56
2022-12-23T14:25:46.151Z,91316.25
2022-12-23T14:28:32.702Z,91307.25
2022-12-23T14:30:59.551Z,91308.19
2022-12-23T14:33:36.201Z,91300.44
2022-12-23T14:36:26.840Z,91312.88
2022-12-23T14:39:11.609Z,91312.19
2022-12-23T14:41:54.181Z,91315.00
2022-12-23T14:44:43.719Z,91316.25
2022-12-23T14:47:35.621Z,91312.66
2022-12-23T14:50:34.047Z,91315.19
2022-12-23T14:53:20.799Z,91318.00
2022-12-23T14:55:48.256Z,91325.53
2022-12-23T14:58:18.073Z,91328.06
2022-12-23T15:00:53.029Z,91324.31
2022-12-23T15:03:19.923Z,91328.59
2022-12-23T15:05:46.705Z,91329.72
2022-12-23T15:08:35.747Z,91324.44
2022-12-23T15:11:02.445Z,91328.19
2022-12-23T15:13:29.547Z,91336.22
2022-12-23T15:16:01.387Z,91331.50
2022-12-23T15:18:29.031Z,91339.69
2022-12-23T15:21:12.474Z,91333.94
2022-12-23T15:23:48.438Z,91341.47
2022-12-23T15:26:15.020Z,91338.38
2022-12-23T15:28:41.800Z,91346.44
2022-12-23T15:31:42.442Z,91349.53
2022-12-23T15:34:17.397Z,91351.38
2022-12-23T15:36:44.328Z,91357.19
2022-12-23T15:39:20.629Z,91350.81
2022-12-23T15:41:47.555Z,91361.28
2022-12-23T15:44:22.244Z,91357.63
2022-12-23T15:46:50.504Z,91356.72
2022-12-23T15:49:17.555Z,91356.72
2022-12-23T15:52:07.227Z,91371.47
2022-12-23T15:54:36.835Z,91371.38
2022-12-23T15:57:04.177Z,91376.34
2022-12-23T15:59:36.524Z,91383.69
2022-12-23T16:02:40.366Z,91374.03
2022-12-23T16:05:00.412Z,91383.56
2022-12-23T16:07:32.876Z,91384.34
2022-12-23T16:10:01.913Z,91387.81
2022-12-23T16:12:28.525Z,91396.72
2022-12-23T16:15:00.867Z,91396.81
2022-12-23T16:17:32.242Z,91393.94
2022-12-23T16:20:38.859Z,91388.00
2022-12-23T16:23:05.464Z,91397.84
2022-12-23T16:25:33.458Z,91395.84
2022-12-23T16:28:04.042Z,91397.66
2022-12-23T16:30:35.486Z,91401.56
2022-12-23T16:33:03.942Z,91403.00
2022-12-23T16:35:37.457Z,91399.91
2022-12-23T16:38:15.908Z,91412.31
2022-12-23T16:40:42.786Z,91407.66
2022-12-23T16:43:09.452Z,91406.16
2022-12-23T16:45:36.606Z,91401.84
2022-12-23T16:48:15.615Z,91401.81
2022-12-23T16:50:42.225Z,91415.56
2022-12-23T16:53:12.284Z,91406.75
2022-12-23T16:55:41.668Z,91414.47
2022-12-23T16:58:11.070Z,91409.56
2022-12-23T17:00:38.133Z,91414.22
2022-12-23T17:03:04.872Z,91418.13
2022-12-23T17:05:31.534Z,91415.03
2022-12-23T17:07:58.246Z,91415.03
2022-12-23T17:10:24.892Z,91408.81
2022-12-23T17:12:51.655Z,91409.28
2022-12-23T17:15:21.519Z,91412.78
2022-12-23T17:17:48.364Z,91415.56
2022-12-23T17:20:16.213Z,91417.56
2022-12-23T17:22:43.906Z,91428.13
2022-12-23T17:25:14.817Z,91414.38
2022-12-23T17:27:41.665Z,91406.38
2022-12-23T17:30:17.151Z,91412.25
2022-12-23T17:32:46.740Z,91410.91
2022-12-23T17:35:15.091Z,91409.22
2022-12-23T17:37:41.733Z,91400.94
2022-12-23T17:40:11.144Z,91408.75
2022-12-23T17:42:37.734Z,91406.06
2022-12-23T17:45:04.916Z,91403.06
2022-12-23T17:47:31.615Z,91401.59
2022-12-23T17:49:58.343Z,91408.06
2022-12-23T17:52:25.001Z,91411.22
2022-12-23T17:54:51.908Z,91414.56
2022-12-23T17:57:25.784Z,91418.50
2022-12-23T17:59:53.434Z,91413.59
2022-12-23T18:02:23.034Z,91409.41
2022-12-23T18:04:50.105Z,91414.66
2022-12-23T18:07:16.786Z,91417.66
2022-12-23T18:09:43.588Z,91412.94
2022-12-23T18:12:24.768Z,91413.81
2022-12-23T18:14:51.834Z,91420.44
2022-12-23T18:17:18.523Z,91419.09
2022-12-23T18:19:45.381Z,91417.75
2022-12-23T18:22:19.998Z,91415.72
2022-12-23T18:24:47.380Z,91425.25
2022-12-23T18:27:18.112Z,91432.88
2022-12-23T18:29:44.850Z,91428.00
2022-12-23T18:32:22.306Z,91432.53
2022-12-23T18:34:49.515Z,91433.00
2022-12-23T18:37:16.663Z,91432.84
2022-12-23T18:39:43.462Z,91433.03
2022-12-23T18:42:17.142Z,91441.66
2022-12-23T18:44:44.180Z,91436.97
2022-12-23T18:47:11.113Z,91435.53
2022-12-23T18:49:37.967Z,91442.66
2022-12-23T18:52:07.415Z,91444.72
2022-12-23T18:54:34.518Z,91451.31
2022-12-23T18:57:01.514Z,91441.88
2022-12-23T18:59:30.136Z,91449.69
2022-12-23T19:01:57.570Z,91430.31
2022-12-23T19:04:24.292Z,91438.06
2022-12-23T19:06:50.967Z,91434.91
2022-12-23T19:09:21.667Z,91442.59
2022-12-23T19:11:49.024Z,91443.97
2022-12-23T19:14:15.682Z,91440.34
2022-12-23T19:16:47.576Z,91438.56
2022-12-23T19:19:17.774Z,91439.53
2022-12-23T19:21:44.439Z,91442.66
2022-12-23T19:24:11.126Z,91437.47
2022-12-23T19:26:37.705Z,91440.75
2022-12-23T19:29:04.671Z,91436.09
2022-12-23T19:31:33.987Z,91440.75
2022-12-23T19:34:00.780Z,91436.56
2022-12-23T19:36:27.673Z,91441.22
2022-12-23T19:38:55.584Z,91437.09
2022-12-23T19:41:22.286Z,91429.28
2022-12-23T19:43:48.918Z,91425.97
2022-12-23T19:46:16.116Z,91427.53
2022-12-23T19:48:42.958Z,91426.63
2022-12-23T19:51:11.466Z,91430.16
2022-12-23T19:53:38.747Z,91419.97
2022-12-23T19:56:14.185Z,91421.78
2022-12-23T19:58:41.716Z,91422.75
2022-12-23T20:01:22.475Z,91417.22
2022-12-23T20:03:49.590Z,91419.19
2022-12-23T20:06:27.433Z,91411.47
2022-12-23T20:09:00.058Z,91424.31
2022-12-23T20:11:30.491Z,91434.34
2022-12-23T20:13:58.497Z,91434.00
2022-12-23T20:16:25.566Z,91431.19
2022-12-23T20:18:52.494Z,91433.94
2022-12-23T20:21:19.243Z,91427.56
2022-12-23T20:23:45.933Z,91424.72
2022-12-23T20:26:13.016Z,91422.22
2022-12-23T20:28:39.759Z,91431.53
2022-12-23T20:31:09.018Z,91428.25
2022-12-23T20:33:36.478Z,91427.53
2022-12-23T20:36:05.259Z,91429.09
2022-12-23T20:38:34.088Z,91429.16
2022-12-23T20:41:02.883Z,91430.22
2022-12-23T20:43:29.546Z,91431.66
2022-12-23T20:45:56.182Z,91440.53
2022-12-23T20:48:24.898Z,91426.56
2022-12-23T20:50:53.494Z,91427.28
2022-12-23T20:53:20.218Z,91425.47
2022-12-23T20:55:46.948Z,91446.53
2022-12-23T20:58:32.229Z,91444.56
2022-12-23T21:01:12.435Z,91433.34
2022-12-23T21:03:39.362Z,91440.44
2022-12-23T21:06:06.668Z,91439.25
2022-12-23T21:08:33.751Z,91436.03
2022-12-23T21:11:00.439Z,91435.00
2022-12-23T21:13:27.172Z,91437.41
2022-12-23T21:15:54.038Z,91448.91
2022-12-23T21:18:20.750Z,91450.69
2022-12-23T21:20:47.429Z,91448.63
2022-12-23T21:23:14.091Z,91454.06
2022-12-23T21:25:40.744Z,91436.72
2022-12-23T21:28:07.345Z,91436.53
2022-12-23T21:30:34.307Z,91438.38
2022-12-23T21:33:02.498Z,91447.25
2022-12-23T21:35:29.228Z,91435.66
2022-12-23T21:37:55.817Z,91443.91
2022-12-23T21:40:22.622Z,91449.22
2022-12-23T21:42:49.284Z,91441.63
2022-12-23T21:45:15.937Z,91441.75
2022-12-23T21:47:42.609Z,91438.91
2022-12-23T21:50:09.620Z,91438.47
2022-12-23T21:52:36.315Z,91429.69
2022-12-23T21:55:03.148Z,91428.50
2022-12-23T21:57:29.739Z,91428.66
2022-12-23T21:59:56.444Z,91437.66
2022-12-23T22:02:23.103Z,91433.44
2022-12-23T22:04:49.818Z,91430.56
2022-12-23T22:07:16.504Z,91438.31
2022-12-23T22:09:43.212Z,91430.41
2022-12-23T22:12:09.823Z,91418.00
2022-12-23T22:14:36.636Z,91415.69
2022-12-23T22:17:03.290Z,91415.66
2022-12-23T22:19:30.035Z,91415.22
2022-12-23T22:21:56.792Z,91419.31
2022-12-23T22:24:23.405Z,91419.13
2022-12-23T22:26:50.006Z,91416.91
2022-12-23T22:29:16.739Z,91420.84
2022-12-23T22:31:44.834Z,91421.28
2022-12-23T22:34:13.644Z,91414.91
2022-12-23T22:36:40.366Z,91430.41
2022-12-23T22:39:08.057Z,91430.81
2022-12-23T22:41:34.955Z,91424.44
2022-12-23T22:44:01.818Z,91413.34
2022-12-23T22:46:28.824Z,91402.19
2022-12-23T22:48:56.416Z,91405.72
2022-12-23T22:51:25.197Z,91418.47
2022-12-23T22:53:51.917Z,91418.53
2022-12-23T22:56:19.133Z,91430.75
2022-12-23T22:58:45.865Z,91415.25
2022-12-23T23:01:26.217Z,91423.63
2022-12-23T23:04:02.167Z,91434.00
2022-12-23T23:06:33.594Z,91427.22
2022-12-23T23:09:00.425Z,91424.09
2022-12-23T23:11:27.335Z,91414.22
2022-12-23T23:13:54.153Z,91409.47
2022-12-23T23:16:20.889Z,91408.72
2022-12-23T23:18:47.627Z,91409.50
2022-12-23T23:21:14.328Z,91416.97
2022-12-23T23:23:41.028Z,91418.41
2022-12-23T23:26:10.196Z,91409.00
2022-12-23T23:28:37.809Z,91404.13
2022-12-23T23:31:39.739Z,91416.41
2022-12-23T23:33:51.259Z,91414.06
2022-12-23T23:36:17.908Z,91416.38
2022-12-23T23:38:44.523Z,91408.38
2022-12-23T23:41:11.245Z,91401.13
2022-12-23T23:43:37.851Z,91393.47
2022-12-23T23:46:04.723Z,91414.28
2022-12-23T23:48:31.516Z,91410.66
2022-12-23T23:51:07.250Z,91399.59
2022-12-23T23:53:34.104Z,91407.84
2022-12-23T23:56:02.697Z,91409.28
2022-12-23T23:58:29.252Z,91407.97
